sensor_id;sensor_type;location;lat;lon;timestamp;temperature;humidity
8858;DHT22;4465;50.904;4.696;2022-11-24T00:00:01;8.70;99.90
8858;DHT22;4465;50.904;4.696;2022-11-24T00:02:27;8.80;99.90
8858;DHT22;4465;50.904;4.696;2022-11-24T00:04:54;8.70;99.90
8858;DHT22;4465;50.904;4.696;2022-11-24T00:07:20;8.80;99.90
8858;DHT22;4465;50.904;4.696;2022-11-24T00:09:48;8.70;99.90
8858;DHT22;4465;50.904;4.696;2022-11-24T00:12:14;8.80;99.90
8858;DHT22;4465;50.904;4.696;2022-11-24T00:14:40;8.70;99.90
8858;DHT22;4465;50.904;4.696;2022-11-24T00:17:05;8.80;99.90
8858;DHT22;4465;50.904;4.696;2022-11-24T00:19:33;8.80;99.90
8858;DHT22;4465;50.904;4.696;2022-11-24T00:21:59;8.80;99.90
8858;DHT22;4465;50.904;4.696;2022-11-24T00:24:25;8.80;99.90
8858;DHT22;4465;50.904;4.696;2022-11-24T00:26:54;8.80;99.90
8858;DHT22;4465;50.904;4.696;2022-11-24T00:29:20;8.80;99.90
8858;DHT22;4465;50.904;4.696;2022-11-24T00:31:48;8.80;99.90
8858;DHT22;4465;50.904;4.696;2022-11-24T00:34:16;8.70;99.90
8858;DHT22;4465;50.904;4.696;2022-11-24T00:36:42;8.70;99.90
8858;DHT22;4465;50.904;4.696;2022-11-24T00:39:12;8.80;99.90
8858;DHT22;4465;50.904;4.696;2022-11-24T00:41:44;8.80;99.90
8858;DHT22;4465;50.904;4.696;2022-11-24T00:44:10;8.80;99.90
8858;DHT22;4465;50.904;4.696;2022-11-24T00:46:36;8.80;99.90
8858;DHT22;4465;50.904;4.696;2022-11-24T00:49:02;8.80;99.90
8858;DHT22;4465;50.904;4.696;2022-11-24T00:51:29;8.80;99.90
8858;DHT22;4465;50.904;4.696;2022-11-24T00:53:58;8.70;99.90
8858;DHT22;4465;50.904;4.696;2022-11-24T00:56:26;8.80;99.90
8858;DHT22;4465;50.904;4.696;2022-11-24T00:58:52;8.80;99.90
8858;DHT22;4465;50.904;4.696;2022-11-24T01:01:27;8.80;99.90
8858;DHT22;4465;50.904;4.696;2022-11-24T01:03:54;8.80;99.90
8858;DHT22;4465;50.904;4.696;2022-11-24T01:06:23;8.80;99.90
8858;DHT22;4465;50.904;4.696;2022-11-24T01:08:49;8.90;99.90
8858;DHT22;4465;50.904;4.696;2022-11-24T01:11:26;8.90;99.90
8858;DHT22;4465;50.904;4.696;2022-11-24T01:13:55;8.80;99.90
8858;DHT22;4465;50.904;4.696;2022-11-24T01:16:33;8.90;99.90
8858;DHT22;4465;50.904;4.696;2022-11-24T01:19:00;8.90;99.90
8858;DHT22;4465;50.904;4.696;2022-11-24T01:21:26;8.80;99.90
8858;DHT22;4465;50.904;4.696;2022-11-24T01:23:52;8.90;99.90
8858;DHT22;4465;50.904;4.696;2022-11-24T01:26:20;8.90;99.90
8858;DHT22;4465;50.904;4.696;2022-11-24T01:28:51;8.90;99.90
8858;DHT22;4465;50.904;4.696;2022-11-24T01:31:18;8.90;99.90
8858;DHT22;4465;50.904;4.696;2022-11-24T01:33:46;8.90;99.90
8858;DHT22;4465;50.904;4.696;2022-11-24T01:36:12;8.80;99.90
8858;DHT22;4465;50.904;4.696;2022-11-24T01:38:38;8.90;99.90
8858;DHT22;4465;50.904;4.696;2022-11-24T01:41:09;8.90;99.90
8858;DHT22;4465;50.904;4.696;2022-11-24T01:43:38;8.90;99.90
8858;DHT22;4465;50.904;4.696;2022-11-24T01:51:29;9.00;99.90
8858;DHT22;4465;50.904;4.696;2022-11-24T01:54:42;9.00;99.90
8858;DHT22;4465;50.904;4.696;2022-11-24T01:56:57;9.00;99.90
8858;DHT22;4465;50.904;4.696;2022-11-24T01:59:27;9.00;99.90
8858;DHT22;4465;50.904;4.696;2022-11-24T02:01:55;9.00;99.90
8858;DHT22;4465;50.904;4.696;2022-11-24T02:04:26;9.00;99.90
8858;DHT22;4465;50.904;4.696;2022-11-24T02:06:59;9.00;99.90
8858;DHT22;4465;50.904;4.696;2022-11-24T02:09:43;9.00;99.90
8858;DHT22;4465;50.904;4.696;2022-11-24T02:12:10;9.10;99.90
8858;DHT22;4465;50.904;4.696;2022-11-24T02:14:37;9.00;99.90
8858;DHT22;4465;50.904;4.696;2022-11-24T02:17:04;9.00;99.90
8858;DHT22;4465;50.904;4.696;2022-11-24T02:27:36;9.10;99.90
8858;DHT22;4465;50.904;4.696;2022-11-24T02:30:02;9.10;99.90
8858;DHT22;4465;50.904;4.696;2022-11-24T02:32:33;9.10;99.90
8858;DHT22;4465;50.904;4.696;2022-11-24T02:35:04;9.10;99.90
8858;DHT22;4465;50.904;4.696;2022-11-24T02:37:30;9.10;99.90
8858;DHT22;4465;50.904;4.696;2022-11-24T02:39:56;9.10;99.90
8858;DHT22;4465;50.904;4.696;2022-11-24T02:42:23;9.20;99.90
8858;DHT22;4465;50.904;4.696;2022-11-24T02:44:54;9.10;99.90
8858;DHT22;4465;50.904;4.696;2022-11-24T02:47:21;9.10;99.90
8858;DHT22;4465;50.904;4.696;2022-11-24T02:49:47;9.10;99.90
8858;DHT22;4465;50.904;4.696;2022-11-24T02:52:15;9.20;99.90
8858;DHT22;4465;50.904;4.696;2022-11-24T02:54:41;9.20;99.90
8858;DHT22;4465;50.904;4.696;2022-11-24T02:57:08;9.10;99.90
8858;DHT22;4465;50.904;4.696;2022-11-24T02:59:33;9.20;99.90
8858;DHT22;4465;50.904;4.696;2022-11-24T03:01:59;9.20;99.90
8858;DHT22;4465;50.904;4.696;2022-11-24T03:04:25;9.20;99.90
8858;DHT22;4465;50.904;4.696;2022-11-24T03:06:51;9.20;99.90
8858;DHT22;4465;50.904;4.696;2022-11-24T03:09:17;9.30;99.90
8858;DHT22;4465;50.904;4.696;2022-11-24T03:11:49;9.30;99.90
8858;DHT22;4465;50.904;4.696;2022-11-24T03:14:15;9.20;99.90
8858;DHT22;4465;50.904;4.696;2022-11-24T03:16:41;9.30;99.90
8858;DHT22;4465;50.904;4.696;2022-11-24T03:19:07;9.30;99.90
8858;DHT22;4465;50.904;4.696;2022-11-24T03:21:35;9.30;99.90
8858;DHT22;4465;50.904;4.696;2022-11-24T03:24:01;9.30;99.90
8858;DHT22;4465;50.904;4.696;2022-11-24T03:26:27;9.30;99.90
8858;DHT22;4465;50.904;4.696;2022-11-24T03:28:54;9.30;99.90
8858;DHT22;4465;50.904;4.696;2022-11-24T03:31:21;9.20;99.90
8858;DHT22;4465;50.904;4.696;2022-11-24T03:33:48;9.30;99.90
8858;DHT22;4465;50.904;4.696;2022-11-24T03:36:13;9.20;99.90
8858;DHT22;4465;50.904;4.696;2022-11-24T03:38:42;9.30;99.90
8858;DHT22;4465;50.904;4.696;2022-11-24T03:41:09;9.30;99.90
8858;DHT22;4465;50.904;4.696;2022-11-24T03:43:35;9.20;99.90
8858;DHT22;4465;50.904;4.696;2022-11-24T03:46:01;9.20;99.90
8858;DHT22;4465;50.904;4.696;2022-11-24T03:48:27;9.20;99.90
8858;DHT22;4465;50.904;4.696;2022-11-24T03:50:55;9.20;99.90
8858;DHT22;4465;50.904;4.696;2022-11-24T03:53:23;9.20;99.90
8858;DHT22;4465;50.904;4.696;2022-11-24T03:55:52;9.20;99.90
8858;DHT22;4465;50.904;4.696;2022-11-24T03:58:20;9.20;99.90
8858;DHT22;4465;50.904;4.696;2022-11-24T04:00:49;9.20;99.90
8858;DHT22;4465;50.904;4.696;2022-11-24T04:03:16;9.20;99.90
8858;DHT22;4465;50.904;4.696;2022-11-24T04:05:42;9.10;99.90
8858;DHT22;4465;50.904;4.696;2022-11-24T04:08:09;9.20;99.90
8858;DHT22;4465;50.904;4.696;2022-11-24T04:10:37;9.10;99.90
8858;DHT22;4465;50.904;4.696;2022-11-24T04:13:03;9.10;99.90
8858;DHT22;4465;50.904;4.696;2022-11-24T04:15:30;9.10;99.90
8858;DHT22;4465;50.904;4.696;2022-11-24T04:17:57;9.10;99.90
8858;DHT22;4465;50.904;4.696;2022-11-24T04:20:23;9.00;99.90
8858;DHT22;4465;50.904;4.696;2022-11-24T04:22:52;9.10;99.90
8858;DHT22;4465;50.904;4.696;2022-11-24T04:25:20;9.00;99.90
8858;DHT22;4465;50.904;4.696;2022-11-24T04:27:50;9.00;99.90
8858;DHT22;4465;50.904;4.696;2022-11-24T04:30:17;9.00;99.90
8858;DHT22;4465;50.904;4.696;2022-11-24T04:32:46;9.00;99.90
8858;DHT22;4465;50.904;4.696;2022-11-24T04:35:13;9.00;99.90
8858;DHT22;4465;50.904;4.696;2022-11-24T04:37:39;8.90;99.90
8858;DHT22;4465;50.904;4.696;2022-11-24T04:40:06;8.90;99.90
8858;DHT22;4465;50.904;4.696;2022-11-24T04:42:33;8.80;99.90
8858;DHT22;4465;50.904;4.696;2022-11-24T04:44:59;8.80;99.90
8858;DHT22;4465;50.904;4.696;2022-11-24T04:47:26;8.90;99.90
8858;DHT22;4465;50.904;4.696;2022-11-24T04:49:52;8.90;99.90
8858;DHT22;4465;50.904;4.696;2022-11-24T04:52:22;8.70;99.90
8858;DHT22;4465;50.904;4.696;2022-11-24T04:54:49;8.70;99.90
8858;DHT22;4465;50.904;4.696;2022-11-24T04:57:16;8.70;99.90
8858;DHT22;4465;50.904;4.696;2022-11-24T04:59:43;8.60;99.90
8858;DHT22;4465;50.904;4.696;2022-11-24T05:02:09;8.60;99.90
8858;DHT22;4465;50.904;4.696;2022-11-24T05:04:35;8.60;99.90
8858;DHT22;4465;50.904;4.696;2022-11-24T05:07:03;8.50;99.90
8858;DHT22;4465;50.904;4.696;2022-11-24T05:09:30;8.60;99.90
8858;DHT22;4465;50.904;4.696;2022-11-24T05:11:56;8.50;99.90
8858;DHT22;4465;50.904;4.696;2022-11-24T05:14:23;8.50;99.90
8858;DHT22;4465;50.904;4.696;2022-11-24T05:16:51;8.50;99.90
8858;DHT22;4465;50.904;4.696;2022-11-24T05:19:17;8.50;99.90
8858;DHT22;4465;50.904;4.696;2022-11-24T05:21:43;8.50;99.90
8858;DHT22;4465;50.904;4.696;2022-11-24T05:24:09;8.50;99.90
8858;DHT22;4465;50.904;4.696;2022-11-24T05:26:36;8.50;99.90
8858;DHT22;4465;50.904;4.696;2022-11-24T05:29:01;8.40;99.90
8858;DHT22;4465;50.904;4.696;2022-11-24T05:31:30;8.40;99.90
8858;DHT22;4465;50.904;4.696;2022-11-24T05:33:59;8.40;99.90
8858;DHT22;4465;50.904;4.696;2022-11-24T05:36:24;8.30;99.90
8858;DHT22;4465;50.904;4.696;2022-11-24T05:39:11;8.30;99.90
8858;DHT22;4465;50.904;4.696;2022-11-24T05:41:40;8.30;99.90
8858;DHT22;4465;50.904;4.696;2022-11-24T05:44:08;8.30;99.90
8858;DHT22;4465;50.904;4.696;2022-11-24T05:46:35;8.20;99.90
8858;DHT22;4465;50.904;4.696;2022-11-24T05:49:01;8.20;99.90
8858;DHT22;4465;50.904;4.696;2022-11-24T05:51:27;8.20;99.90
8858;DHT22;4465;50.904;4.696;2022-11-24T05:53:53;8.20;99.90
8858;DHT22;4465;50.904;4.696;2022-11-24T05:56:19;8.20;99.90
8858;DHT22;4465;50.904;4.696;2022-11-24T05:58:45;8.10;99.90
8858;DHT22;4465;50.904;4.696;2022-11-24T06:01:12;8.20;99.90
8858;DHT22;4465;50.904;4.696;2022-11-24T06:03:38;8.20;99.90
8858;DHT22;4465;50.904;4.696;2022-11-24T06:06:04;8.10;99.90
8858;DHT22;4465;50.904;4.696;2022-11-24T06:08:30;8.20;99.90
8858;DHT22;4465;50.904;4.696;2022-11-24T06:11:00;8.10;99.90
8858;DHT22;4465;50.904;4.696;2022-11-24T06:13:42;8.10;99.90
8858;DHT22;4465;50.904;4.696;2022-11-24T06:16:09;8.10;99.90
8858;DHT22;4465;50.904;4.696;2022-11-24T06:18:35;8.10;99.90
8858;DHT22;4465;50.904;4.696;2022-11-24T06:21:04;8.10;99.90
8858;DHT22;4465;50.904;4.696;2022-11-24T06:23:30;8.10;99.90
8858;DHT22;4465;50.904;4.696;2022-11-24T06:25:58;8.10;99.90
8858;DHT22;4465;50.904;4.696;2022-11-24T06:28:24;8.10;99.90
8858;DHT22;4465;50.904;4.696;2022-11-24T06:30:50;8.10;99.90
8858;DHT22;4465;50.904;4.696;2022-11-24T06:33:17;8.10;99.90
8858;DHT22;4465;50.904;4.696;2022-11-24T06:35:43;8.10;99.90
8858;DHT22;4465;50.904;4.696;2022-11-24T06:38:10;8.10;99.90
8858;DHT22;4465;50.904;4.696;2022-11-24T06:40:36;8.10;99.90
8858;DHT22;4465;50.904;4.696;2022-11-24T06:43:01;8.10;99.90
8858;DHT22;4465;50.904;4.696;2022-11-24T06:45:28;8.10;99.90
8858;DHT22;4465;50.904;4.696;2022-11-24T06:47:57;8.10;99.90
8858;DHT22;4465;50.904;4.696;2022-11-24T06:50:22;8.20;99.90
8858;DHT22;4465;50.904;4.696;2022-11-24T06:52:48;8.10;99.90
8858;DHT22;4465;50.904;4.696;2022-11-24T06:55:14;8.10;99.90
8858;DHT22;4465;50.904;4.696;2022-11-24T06:57:42;8.20;99.90
8858;DHT22;4465;50.904;4.696;2022-11-24T07:00:11;8.10;99.90
8858;DHT22;4465;50.904;4.696;2022-11-24T07:02:40;8.10;99.90
8858;DHT22;4465;50.904;4.696;2022-11-24T07:05:07;8.00;99.90
8858;DHT22;4465;50.904;4.696;2022-11-24T07:07:32;8.10;99.90
8858;DHT22;4465;50.904;4.696;2022-11-24T07:09:58;8.10;99.90
8858;DHT22;4465;50.904;4.696;2022-11-24T07:12:24;8.00;99.90
8858;DHT22;4465;50.904;4.696;2022-11-24T07:14:50;8.00;99.90
8858;DHT22;4465;50.904;4.696;2022-11-24T07:17:21;8.00;99.90
8858;DHT22;4465;50.904;4.696;2022-11-24T07:19:48;8.00;99.90
8858;DHT22;4465;50.904;4.696;2022-11-24T07:22:17;8.10;99.90
8858;DHT22;4465;50.904;4.696;2022-11-24T07:24:43;8.00;99.90
8858;DHT22;4465;50.904;4.696;2022-11-24T07:27:09;8.00;99.90
8858;DHT22;4465;50.904;4.696;2022-11-24T07:29:36;8.00;99.90
8858;DHT22;4465;50.904;4.696;2022-11-24T07:32:02;8.00;99.90
8858;DHT22;4465;50.904;4.696;2022-11-24T07:34:28;8.00;99.90
8858;DHT22;4465;50.904;4.696;2022-11-24T07:36:55;8.00;99.90
8858;DHT22;4465;50.904;4.696;2022-11-24T07:39:22;8.10;99.90
8858;DHT22;4465;50.904;4.696;2022-11-24T07:41:52;8.00;99.90
8858;DHT22;4465;50.904;4.696;2022-11-24T07:44:19;8.00;99.90
8858;DHT22;4465;50.904;4.696;2022-11-24T07:46:45;8.00;99.90
8858;DHT22;4465;50.904;4.696;2022-11-24T07:49:11;8.00;99.90
8858;DHT22;4465;50.904;4.696;2022-11-24T07:51:37;8.00;99.90
8858;DHT22;4465;50.904;4.696;2022-11-24T07:54:05;8.10;99.90
8858;DHT22;4465;50.904;4.696;2022-11-24T07:56:31;8.10;99.90
8858;DHT22;4465;50.904;4.696;2022-11-24T07:58:58;8.10;99.90
8858;DHT22;4465;50.904;4.696;2022-11-24T08:01:24;8.10;99.90
8858;DHT22;4465;50.904;4.696;2022-11-24T08:03:52;8.10;99.90
8858;DHT22;4465;50.904;4.696;2022-11-24T08:06:19;8.10;99.90
8858;DHT22;4465;50.904;4.696;2022-11-24T08:08:45;8.10;99.90
8858;DHT22;4465;50.904;4.696;2022-11-24T08:11:14;8.10;99.90
8858;DHT22;4465;50.904;4.696;2022-11-24T08:13:43;8.20;99.90
8858;DHT22;4465;50.904;4.696;2022-11-24T08:16:12;8.20;99.90
8858;DHT22;4465;50.904;4.696;2022-11-24T08:18:39;8.30;99.90
8858;DHT22;4465;50.904;4.696;2022-11-24T08:21:06;8.20;99.90
8858;DHT22;4465;50.904;4.696;2022-11-24T08:23:33;8.20;99.90
8858;DHT22;4465;50.904;4.696;2022-11-24T08:26:06;8.30;99.90
8858;DHT22;4465;50.904;4.696;2022-11-24T08:28:34;8.30;99.90
8858;DHT22;4465;50.904;4.696;2022-11-24T08:31:12;8.30;99.90
8858;DHT22;4465;50.904;4.696;2022-11-24T08:33:39;8.30;99.90
8858;DHT22;4465;50.904;4.696;2022-11-24T08:36:13;8.40;99.90
8858;DHT22;4465;50.904;4.696;2022-11-24T08:38:40;8.40;99.90
8858;DHT22;4465;50.904;4.696;2022-11-24T08:41:09;8.40;99.90
8858;DHT22;4465;50.904;4.696;2022-11-24T08:43:36;8.50;99.90
8858;DHT22;4465;50.904;4.696;2022-11-24T08:46:07;8.60;99.90
8858;DHT22;4465;50.904;4.696;2022-11-24T08:48:33;8.70;99.90
8858;DHT22;4465;50.904;4.696;2022-11-24T08:51:07;8.80;99.90
8858;DHT22;4465;50.904;4.696;2022-11-24T08:53:36;8.80;99.90
8858;DHT22;4465;50.904;4.696;2022-11-24T08:56:04;8.90;99.90
8858;DHT22;4465;50.904;4.696;2022-11-24T08:58:33;8.90;99.90
8858;DHT22;4465;50.904;4.696;2022-11-24T09:01:10;9.10;99.90
8858;DHT22;4465;50.904;4.696;2022-11-24T09:03:36;9.10;99.90
8858;DHT22;4465;50.904;4.696;2022-11-24T09:06:04;9.20;99.90
8858;DHT22;4465;50.904;4.696;2022-11-24T09:08:31;9.20;99.90
8858;DHT22;4465;50.904;4.696;2022-11-24T09:11:05;9.40;99.90
8858;DHT22;4465;50.904;4.696;2022-11-24T09:13:31;9.40;99.90
8858;DHT22;4465;50.904;4.696;2022-11-24T09:16:17;9.40;99.90
8858;DHT22;4465;50.904;4.696;2022-11-24T09:18:44;9.50;99.90
8858;DHT22;4465;50.904;4.696;2022-11-24T09:21:16;9.50;99.90
8858;DHT22;4465;50.904;4.696;2022-11-24T09:23:43;9.60;99.90
8858;DHT22;4465;50.904;4.696;2022-11-24T09:26:11;9.70;99.90
8858;DHT22;4465;50.904;4.696;2022-11-24T09:28:39;9.80;99.90
8858;DHT22;4465;50.904;4.696;2022-11-24T09:31:07;9.80;99.90
8858;DHT22;4465;50.904;4.696;2022-11-24T09:33:35;10.00;99.90
8858;DHT22;4465;50.904;4.696;2022-11-24T09:36:02;10.00;99.90
8858;DHT22;4465;50.904;4.696;2022-11-24T09:38:28;10.10;99.90
8858;DHT22;4465;50.904;4.696;2022-11-24T09:40:55;10.10;99.90
8858;DHT22;4465;50.904;4.696;2022-11-24T09:43:40;10.20;99.90
8858;DHT22;4465;50.904;4.696;2022-11-24T09:46:25;10.20;99.90
8858;DHT22;4465;50.904;4.696;2022-11-24T09:48:55;10.30;99.90
8858;DHT22;4465;50.904;4.696;2022-11-24T09:51:26;10.30;99.90
8858;DHT22;4465;50.904;4.696;2022-11-24T09:54:00;10.50;99.90
8858;DHT22;4465;50.904;4.696;2022-11-24T09:56:29;10.50;99.90
8858;DHT22;4465;50.904;4.696;2022-11-24T09:59:16;10.70;99.90
8858;DHT22;4465;50.904;4.696;2022-11-24T10:01:44;10.90;99.90
8858;DHT22;4465;50.904;4.696;2022-11-24T10:04:36;11.00;99.90
8858;DHT22;4465;50.904;4.696;2022-11-24T10:07:21;11.20;99.90
8858;DHT22;4465;50.904;4.696;2022-11-24T10:10:22;11.40;99.90
8858;DHT22;4465;50.904;4.696;2022-11-24T10:13:16;11.60;99.90
8858;DHT22;4465;50.904;4.696;2022-11-24T10:19:00;11.80;99.90
8858;DHT22;4465;50.904;4.696;2022-11-24T10:21:46;11.90;99.90
8858;DHT22;4465;50.904;4.696;2022-11-24T10:27:21;12.00;99.90
8858;DHT22;4465;50.904;4.696;2022-11-24T10:29:51;12.00;99.90
8858;DHT22;4465;50.904;4.696;2022-11-24T10:32:28;12.00;99.90
8858;DHT22;4465;50.904;4.696;2022-11-24T10:35:01;12.00;99.90
8858;DHT22;4465;50.904;4.696;2022-11-24T10:37:32;12.10;99.90
8858;DHT22;4465;50.904;4.696;2022-11-24T10:40:07;12.00;99.90
8858;DHT22;4465;50.904;4.696;2022-11-24T10:42:35;12.10;99.90
8858;DHT22;4465;50.904;4.696;2022-11-24T10:45:14;12.20;99.90
8858;DHT22;4465;50.904;4.696;2022-11-24T10:47:41;12.20;99.90
8858;DHT22;4465;50.904;4.696;2022-11-24T10:50:46;12.20;99.90
8858;DHT22;4465;50.904;4.696;2022-11-24T10:53:25;12.10;99.90
8858;DHT22;4465;50.904;4.696;2022-11-24T10:56:01;12.10;99.90
8858;DHT22;4465;50.904;4.696;2022-11-24T10:58:33;12.10;99.90
8858;DHT22;4465;50.904;4.696;2022-11-24T11:03:51;12.10;99.90
8858;DHT22;4465;50.904;4.696;2022-11-24T11:06:23;12.20;99.90
8858;DHT22;4465;50.904;4.696;2022-11-24T11:11:39;12.50;99.90
8858;DHT22;4465;50.904;4.696;2022-11-24T11:14:10;12.60;99.90
8858;DHT22;4465;50.904;4.696;2022-11-24T11:16:41;12.80;99.90
8858;DHT22;4465;50.904;4.696;2022-11-24T11:19:29;13.00;99.90
8858;DHT22;4465;50.904;4.696;2022-11-24T11:24:47;13.30;99.90
8858;DHT22;4465;50.904;4.696;2022-11-24T11:27:26;13.40;99.90
8858;DHT22;4465;50.904;4.696;2022-11-24T11:29:52;13.60;99.90
8858;DHT22;4465;50.904;4.696;2022-11-24T11:32:22;13.60;99.90
8858;DHT22;4465;50.904;4.696;2022-11-24T11:34:50;13.60;99.90
8858;DHT22;4465;50.904;4.696;2022-11-24T11:37:19;13.70;99.90
8858;DHT22;4465;50.904;4.696;2022-11-24T11:39:46;13.70;99.90
8858;DHT22;4465;50.904;4.696;2022-11-24T11:45:04;13.70;99.90
8858;DHT22;4465;50.904;4.696;2022-11-24T11:50:15;13.70;99.90
8858;DHT22;4465;50.904;4.696;2022-11-24T11:55:48;13.80;99.90
8858;DHT22;4465;50.904;4.696;2022-11-24T12:09:14;14.30;99.90
8858;DHT22;4465;50.904;4.696;2022-11-24T12:11:47;14.50;99.90
8858;DHT22;4465;50.904;4.696;2022-11-24T12:16:58;14.60;99.90
8858;DHT22;4465;50.904;4.696;2022-11-24T12:25:01;14.70;99.90
8858;DHT22;4465;50.904;4.696;2022-11-24T12:27:42;14.80;99.90
8858;DHT22;4465;50.904;4.696;2022-11-24T12:30:16;14.70;99.90
8858;DHT22;4465;50.904;4.696;2022-11-24T12:33:00;14.70;99.90
8858;DHT22;4465;50.904;4.696;2022-11-24T12:35:51;14.70;99.90
8858;DHT22;4465;50.904;4.696;2022-11-24T12:38:34;14.70;99.90
8858;DHT22;4465;50.904;4.696;2022-11-24T12:41:53;14.60;99.90
8858;DHT22;4465;50.904;4.696;2022-11-24T12:44:34;14.40;99.90
8858;DHT22;4465;50.904;4.696;2022-11-24T12:47:15;14.30;99.90
8858;DHT22;4465;50.904;4.696;2022-11-24T12:50:09;14.10;99.90
8858;DHT22;4465;50.904;4.696;2022-11-24T12:52:36;13.90;99.90
8858;DHT22;4465;50.904;4.696;2022-11-24T12:55:03;13.70;99.90
8858;DHT22;4465;50.904;4.696;2022-11-24T12:57:36;13.70;99.90
8858;DHT22;4465;50.904;4.696;2022-11-24T13:00:24;13.70;99.90
8858;DHT22;4465;50.904;4.696;2022-11-24T13:03:23;13.60;99.90
8858;DHT22;4465;50.904;4.696;2022-11-24T13:05:56;13.50;99.90
8858;DHT22;4465;50.904;4.696;2022-11-24T13:08:26;13.40;99.90
8858;DHT22;4465;50.904;4.696;2022-11-24T13:10:52;13.40;99.90
8858;DHT22;4465;50.904;4.696;2022-11-24T13:13:22;13.40;99.90
8858;DHT22;4465;50.904;4.696;2022-11-24T13:23:57;13.60;99.90
8858;DHT22;4465;50.904;4.696;2022-11-24T13:29:27;13.50;99.90
8858;DHT22;4465;50.904;4.696;2022-11-24T13:31:49;13.30;99.90
8858;DHT22;4465;50.904;4.696;2022-11-24T13:39:51;13.10;99.90
8858;DHT22;4465;50.904;4.696;2022-11-24T13:42:18;13.00;99.90
8858;DHT22;4465;50.904;4.696;2022-11-24T13:44:49;13.00;99.90
8858;DHT22;4465;50.904;4.696;2022-11-24T13:47:35;12.90;99.90
8858;DHT22;4465;50.904;4.696;2022-11-24T13:50:07;12.80;99.90
8858;DHT22;4465;50.904;4.696;2022-11-24T13:52:44;12.70;99.90
8858;DHT22;4465;50.904;4.696;2022-11-24T14:00:34;12.50;99.90
8858;DHT22;4465;50.904;4.696;2022-11-24T14:03:21;12.50;99.90
8858;DHT22;4465;50.904;4.696;2022-11-24T14:05:51;12.40;99.90
8858;DHT22;4465;50.904;4.696;2022-11-24T14:08:22;12.40;99.90
8858;DHT22;4465;50.904;4.696;2022-11-24T14:10:49;12.30;99.90
8858;DHT22;4465;50.904;4.696;2022-11-24T14:16:18;12.20;99.90
8858;DHT22;4465;50.904;4.696;2022-11-24T14:18:47;12.10;99.90
8858;DHT22;4465;50.904;4.696;2022-11-24T14:24:07;12.00;99.90
8858;DHT22;4465;50.904;4.696;2022-11-24T14:26:36;12.00;99.90
8858;DHT22;4465;50.904;4.696;2022-11-24T14:29:05;11.90;99.90
8858;DHT22;4465;50.904;4.696;2022-11-24T14:31:37;11.90;99.90
8858;DHT22;4465;50.904;4.696;2022-11-24T14:34:14;11.90;99.90
8858;DHT22;4465;50.904;4.696;2022-11-24T14:36:41;11.80;99.90
8858;DHT22;4465;50.904;4.696;2022-11-24T14:39:14;11.70;99.90
8858;DHT22;4465;50.904;4.696;2022-11-24T14:44:26;11.60;99.90
8858;DHT22;4465;50.904;4.696;2022-11-24T14:47:01;11.50;99.90
8858;DHT22;4465;50.904;4.696;2022-11-24T14:49:29;11.50;99.90
8858;DHT22;4465;50.904;4.696;2022-11-24T14:51:59;11.40;99.90
8858;DHT22;4465;50.904;4.696;2022-11-24T14:54:27;11.40;99.90
8858;DHT22;4465;50.904;4.696;2022-11-24T14:57:04;11.40;99.90
8858;DHT22;4465;50.904;4.696;2022-11-24T14:59:33;11.30;99.90
8858;DHT22;4465;50.904;4.696;2022-11-24T15:02:01;11.20;99.90
8858;DHT22;4465;50.904;4.696;2022-11-24T15:04:29;11.20;99.90
8858;DHT22;4465;50.904;4.696;2022-11-24T15:07:25;11.10;99.90
8858;DHT22;4465;50.904;4.696;2022-11-24T15:09:56;11.10;99.90
8858;DHT22;4465;50.904;4.696;2022-11-24T15:14:52;11.00;99.90
8858;DHT22;4465;50.904;4.696;2022-11-24T15:17:26;11.00;99.90
8858;DHT22;4465;50.904;4.696;2022-11-24T15:20:16;10.90;99.90
8858;DHT22;4465;50.904;4.696;2022-11-24T15:22:47;10.90;99.90
8858;DHT22;4465;50.904;4.696;2022-11-24T15:25:38;10.80;99.90
8858;DHT22;4465;50.904;4.696;2022-11-24T15:28:04;10.80;99.90
8858;DHT22;4465;50.904;4.696;2022-11-24T15:30:34;10.70;99.90
8858;DHT22;4465;50.904;4.696;2022-11-24T15:33:01;10.70;99.90
8858;DHT22;4465;50.904;4.696;2022-11-24T15:35:31;10.70;99.90
8858;DHT22;4465;50.904;4.696;2022-11-24T15:37:58;10.60;99.90
8858;DHT22;4465;50.904;4.696;2022-11-24T15:40:23;10.60;99.90
8858;DHT22;4465;50.904;4.696;2022-11-24T15:42:55;10.60;99.90
8858;DHT22;4465;50.904;4.696;2022-11-24T15:45:23;10.50;99.90
8858;DHT22;4465;50.904;4.696;2022-11-24T15:47:51;10.50;99.90
8858;DHT22;4465;50.904;4.696;2022-11-24T15:50:17;10.50;99.90
8858;DHT22;4465;50.904;4.696;2022-11-24T15:52:44;10.50;99.90
8858;DHT22;4465;50.904;4.696;2022-11-24T15:55:18;10.40;99.90
8858;DHT22;4465;50.904;4.696;2022-11-24T15:57:45;10.40;99.90
8858;DHT22;4465;50.904;4.696;2022-11-24T16:00:17;10.40;99.90
8858;DHT22;4465;50.904;4.696;2022-11-24T16:02:43;10.30;99.90
8858;DHT22;4465;50.904;4.696;2022-11-24T16:05:10;10.30;99.90
8858;DHT22;4465;50.904;4.696;2022-11-24T16:07:37;10.20;99.90
8858;DHT22;4465;50.904;4.696;2022-11-24T16:10:26;10.20;99.90
8858;DHT22;4465;50.904;4.696;2022-11-24T16:13:00;10.20;99.90
8858;DHT22;4465;50.904;4.696;2022-11-24T16:15:29;10.20;99.90
8858;DHT22;4465;50.904;4.696;2022-11-24T16:17:55;10.20;99.90
8858;DHT22;4465;50.904;4.696;2022-11-24T16:20:21;10.10;99.90
8858;DHT22;4465;50.904;4.696;2022-11-24T16:22:56;10.10;99.90
8858;DHT22;4465;50.904;4.696;2022-11-24T16:25:26;10.10;99.90
8858;DHT22;4465;50.904;4.696;2022-11-24T16:27:52;10.10;99.90
8858;DHT22;4465;50.904;4.696;2022-11-24T16:30:20;10.00;99.90
8858;DHT22;4465;50.904;4.696;2022-11-24T16:32:46;9.90;99.90
8858;DHT22;4465;50.904;4.696;2022-11-24T16:35:13;9.90;99.90
8858;DHT22;4465;50.904;4.696;2022-11-24T16:37:38;9.90;99.90
8858;DHT22;4465;50.904;4.696;2022-11-24T16:40:05;9.90;99.90
8858;DHT22;4465;50.904;4.696;2022-11-24T16:42:33;9.90;99.90
8858;DHT22;4465;50.904;4.696;2022-11-24T16:44:59;9.80;99.90
8858;DHT22;4465;50.904;4.696;2022-11-24T16:47:26;9.80;99.90
8858;DHT22;4465;50.904;4.696;2022-11-24T16:49:52;9.80;99.90
8858;DHT22;4465;50.904;4.696;2022-11-24T16:52:18;9.80;99.90
8858;DHT22;4465;50.904;4.696;2022-11-24T16:54:45;9.80;99.90
8858;DHT22;4465;50.904;4.696;2022-11-24T16:57:13;9.80;99.90
8858;DHT22;4465;50.904;4.696;2022-11-24T16:59:39;9.70;99.90
8858;DHT22;4465;50.904;4.696;2022-11-24T17:02:06;9.70;99.90
8858;DHT22;4465;50.904;4.696;2022-11-24T17:04:32;9.70;99.90
8858;DHT22;4465;50.904;4.696;2022-11-24T17:06:58;9.70;99.90
8858;DHT22;4465;50.904;4.696;2022-11-24T17:09:24;9.70;99.90
8858;DHT22;4465;50.904;4.696;2022-11-24T17:11:50;9.60;99.90
8858;DHT22;4465;50.904;4.696;2022-11-24T17:14:19;9.60;99.90
8858;DHT22;4465;50.904;4.696;2022-11-24T17:16:45;9.80;99.90
8858;DHT22;4465;50.904;4.696;2022-11-24T17:19:14;9.60;99.90
8858;DHT22;4465;50.904;4.696;2022-11-24T17:21:41;9.60;99.90
8858;DHT22;4465;50.904;4.696;2022-11-24T17:24:08;9.50;99.90
8858;DHT22;4465;50.904;4.696;2022-11-24T17:26:47;9.50;99.90
8858;DHT22;4465;50.904;4.696;2022-11-24T17:29:13;9.50;99.90
8858;DHT22;4465;50.904;4.696;2022-11-24T17:31:41;9.50;99.90
8858;DHT22;4465;50.904;4.696;2022-11-24T17:34:10;9.50;99.90
8858;DHT22;4465;50.904;4.696;2022-11-24T17:36:37;9.40;99.90
8858;DHT22;4465;50.904;4.696;2022-11-24T17:39:05;9.40;99.90
8858;DHT22;4465;50.904;4.696;2022-11-24T17:41:34;9.40;99.90
8858;DHT22;4465;50.904;4.696;2022-11-24T17:44:00;9.40;99.90
8858;DHT22;4465;50.904;4.696;2022-11-24T17:46:27;9.40;99.90
8858;DHT22;4465;50.904;4.696;2022-11-24T17:48:54;9.30;99.90
8858;DHT22;4465;50.904;4.696;2022-11-24T17:51:22;9.40;99.90
8858;DHT22;4465;50.904;4.696;2022-11-24T17:53:52;9.40;99.90
8858;DHT22;4465;50.904;4.696;2022-11-24T17:56:23;9.40;99.90